createdAt,value
2023-04-18T00:02:51.622Z,7.89
2023-04-18T00:05:53.477Z,7.86
2023-04-18T00:08:55.199Z,7.88
2023-04-18T00:11:56.963Z,7.83
2023-04-18T00:14:58.769Z,7.79
2023-04-18T00:18:03.641Z,7.72
2023-04-18T00:21:06.865Z,7.75
2023-04-18T00:24:08.922Z,7.71
2023-04-18T00:27:10.768Z,7.65
2023-04-18T00:30:12.976Z,7.54
2023-04-18T00:33:14.912Z,7.47
2023-04-18T00:36:19.580Z,7.35
2023-04-18T00:39:21.367Z,7.25
2023-04-18T00:42:25.510Z,7.19
2023-04-18T00:45:27.116Z,7.24
2023-04-18T00:48:30.081Z,7.31
2023-04-18T00:51:33.674Z,7.21
2023-04-18T00:54:36.316Z,7.17
2023-04-18T00:57:38.382Z,7.20
2023-04-18T01:00:40.835Z,7.15
2023-04-18T01:03:42.964Z,7.22
2023-04-18T01:06:45.704Z,7.16
2023-04-18T01:09:48.136Z,7.19
2023-04-18T01:12:49.768Z,7.23
2023-04-18T01:15:52.057Z,7.28
2023-04-18T01:18:56.452Z,7.17
2023-04-18T01:21:58.153Z,7.16
2023-04-18T01:24:59.837Z,7.13
2023-04-18T01:28:01.848Z,7.20
2023-04-18T01:31:05.106Z,7.15
2023-04-18T01:34:07.310Z,7.14
2023-04-18T01:37:09.598Z,7.23
2023-04-18T01:40:11.926Z,7.21
2023-04-18T01:43:13.698Z,7.23
2023-04-18T01:46:15.647Z,7.20
2023-04-18T01:49:20.589Z,7.17
2023-04-18T01:52:24.946Z,7.13
2023-04-18T01:55:26.754Z,7.10
2023-04-18T01:58:29.658Z,7.17
2023-04-18T02:01:31.799Z,7.20
2023-04-18T02:04:34.177Z,7.16
2023-04-18T02:07:36.106Z,7.10
2023-04-18T02:10:38.322Z,7.08
2023-04-18T02:13:40.223Z,7.10
2023-04-18T02:16:42.086Z,7.06
2023-04-18T02:19:43.897Z,7.06
2023-04-18T02:22:48.027Z,7.13
2023-04-18T02:25:50.945Z,7.08
2023-04-18T02:28:52.763Z,7.07
2023-04-18T02:31:58.571Z,7.07
2023-04-18T02:35:00.725Z,7.07
2023-04-18T02:38:02.968Z,7.06
2023-04-18T02:41:05.246Z,7.05
2023-04-18T02:44:09.524Z,6.99
2023-04-18T02:47:14.037Z,6.93
2023-04-18T02:50:18.603Z,6.96
2023-04-18T02:53:24.280Z,6.88
2023-04-18T02:56:29.028Z,6.89
2023-04-18T02:59:54.790Z,6.80
2023-04-18T03:02:56.730Z,6.78
2023-04-18T03:06:13.734Z,6.72
2023-04-18T03:09:17.049Z,6.71
2023-04-18T03:12:24.764Z,6.76
2023-04-18T03:15:27.180Z,6.68
2023-04-18T03:18:29.206Z,6.69
2023-04-18T03:21:33.902Z,6.69
2023-04-18T03:24:35.773Z,6.68
2023-04-18T03:27:40.531Z,6.68
2023-04-18T03:30:43.369Z,6.61
2023-04-18T03:33:46.099Z,6.63
2023-04-18T03:36:48.388Z,6.63
2023-04-18T03:39:51.540Z,6.60
2023-04-18T03:42:53.567Z,6.58
2023-04-18T03:45:56.379Z,6.59
2023-04-18T03:48:58.031Z,6.61
2023-04-18T03:51:59.801Z,6.65
2023-04-18T03:55:01.998Z,6.68
2023-04-18T03:58:08.120Z,6.64
2023-04-18T04:01:10.778Z,6.64
2023-04-18T04:04:15.302Z,6.65
2023-04-18T04:07:17.937Z,6.71
2023-04-18T04:10:19.803Z,6.65
2023-04-18T04:13:25.343Z,6.65
2023-04-18T04:16:28.414Z,6.71
2023-04-18T04:19:31.157Z,6.75
2023-04-18T04:22:53.431Z,6.73
2023-04-18T04:25:58.822Z,6.75
2023-04-18T04:29:19.128Z,6.80
2023-04-18T04:32:24.196Z,6.79
2023-04-18T04:35:26.732Z,6.76
2023-04-18T04:38:31.153Z,6.77
2023-04-18T04:41:33.762Z,6.79
2023-04-18T04:44:37.426Z,6.85
2023-04-18T04:47:39.324Z,6.85
2023-04-18T04:50:42.064Z,6.81
2023-04-18T04:53:46.433Z,6.84
2023-04-18T04:56:48.542Z,6.81
2023-04-18T04:59:50.783Z,6.89
2023-04-18T05:02:55.426Z,6.86
2023-04-18T05:06:00.287Z,6.80
2023-04-18T05:09:02.226Z,6.84
2023-04-18T05:12:04.800Z,6.89
2023-04-18T05:15:07.441Z,6.93
2023-04-18T05:18:09.432Z,6.95
2023-04-18T05:21:11.072Z,6.90
2023-04-18T05:24:12.875Z,6.97
2023-04-18T05:27:17.197Z,6.99
2023-04-18T05:30:20.142Z,7.00
2023-04-18T05:33:21.998Z,7.05
2023-04-18T05:36:24.072Z,7.17
2023-04-18T05:39:25.951Z,7.24
2023-04-18T05:42:27.715Z,7.31
2023-04-18T05:45:29.621Z,7.35
2023-04-18T05:48:31.373Z,7.44
2023-04-18T05:51:33.284Z,7.51
2023-04-18T05:54:35.279Z,7.47
2023-04-18T05:57:37.031Z,7.53
2023-04-18T06:00:39.734Z,7.57
2023-04-18T06:03:42.318Z,7.61
2023-04-18T06:06:44.451Z,7.61
2023-04-18T06:09:46.310Z,7.61
2023-04-18T06:12:48.405Z,7.64
2023-04-18T06:15:50.229Z,7.60
2023-04-18T06:18:52.258Z,7.61
2023-04-18T06:21:54.233Z,7.65
2023-04-18T06:24:56.180Z,7.77
2023-04-18T06:27:58.064Z,7.73
2023-04-18T06:30:59.799Z,7.73
2023-04-18T06:34:01.665Z,7.85
2023-04-18T06:37:03.929Z,7.92
2023-04-18T06:40:06.116Z,8.04
2023-04-18T06:43:08.616Z,8.18
2023-04-18T06:46:10.475Z,8.31
2023-04-18T06:49:12.542Z,8.37
2023-04-18T06:52:14.410Z,8.38
2023-04-18T06:55:16.345Z,8.28
2023-04-18T06:58:18.251Z,8.29
2023-04-18T07:01:20.323Z,8.28
2023-04-18T07:04:22.503Z,8.35
2023-04-18T07:07:24.527Z,8.41
2023-04-18T07:10:26.666Z,8.54
2023-04-18T07:13:28.983Z,8.62
2023-04-18T07:16:30.991Z,8.65
2023-04-18T07:19:32.827Z,8.81
2023-04-18T07:22:35.124Z,8.96
2023-04-18T07:25:37.780Z,9.13
2023-04-18T07:28:39.789Z,9.33
2023-04-18T07:31:41.860Z,9.56
2023-04-18T07:34:45.176Z,9.70
2023-04-18T07:37:47.436Z,9.73
2023-04-18T07:40:59.970Z,9.74
2023-04-18T07:44:02.642Z,9.86
2023-04-18T07:47:07.325Z,10.00
2023-04-18T07:50:10.237Z,10.23
2023-04-18T07:53:12.566Z,10.33
2023-04-18T07:56:14.566Z,10.35
2023-04-18T07:59:16.733Z,10.52
2023-04-18T08:02:19.212Z,10.69
2023-04-18T08:05:21.334Z,10.74
2023-04-18T08:08:23.516Z,10.52
2023-04-18T08:11:25.435Z,10.54
2023-04-18T08:14:29.886Z,10.56
2023-04-18T08:17:33.072Z,10.63
2023-04-18T08:20:37.326Z,10.76
2023-04-18T08:23:39.072Z,11.01
2023-04-18T08:26:41.041Z,11.23
2023-04-18T08:29:43.000Z,11.20
2023-04-18T08:32:44.705Z,11.24
2023-04-18T08:35:46.529Z,11.34
2023-04-18T08:38:48.502Z,11.58
2023-04-18T08:41:59.683Z,11.75
2023-04-18T08:45:02.170Z,11.92
2023-04-18T08:48:04.441Z,11.97
2023-04-18T08:51:06.316Z,12.05
2023-04-18T08:54:08.590Z,12.24
2023-04-18T08:57:12.716Z,12.48
2023-04-18T09:00:17.952Z,12.59
2023-04-18T09:03:37.455Z,12.72
2023-04-18T09:06:52.983Z,12.83
2023-04-18T09:09:59.730Z,12.89
2023-04-18T09:13:10.190Z,13.05
2023-04-18T09:16:12.020Z,12.97
2023-04-18T09:19:19.055Z,12.80
2023-04-18T09:22:20.946Z,12.65
2023-04-18T09:25:34.942Z,12.41
2023-04-18T09:28:38.605Z,12.22
2023-04-18T09:32:07.191Z,12.22
2023-04-18T09:35:09.613Z,12.59
2023-04-18T09:38:11.691Z,12.95
2023-04-18T09:41:16.839Z,13.27
2023-04-18T09:44:20.796Z,13.45
2023-04-18T09:47:22.796Z,13.64
2023-04-18T09:50:24.656Z,13.72
2023-04-18T09:53:28.204Z,13.67
2023-04-18T09:56:32.648Z,13.67
2023-04-18T09:59:44.786Z,13.83
2023-04-18T10:02:50.809Z,13.77
2023-04-18T10:05:54.428Z,13.67
2023-04-18T10:08:57.894Z,13.77
2023-04-18T10:12:02.381Z,13.67
2023-04-18T10:15:06.065Z,13.81
2023-04-18T10:18:15.082Z,13.83
2023-04-18T10:21:17.287Z,13.68
2023-04-18T10:24:53.247Z,13.55
2023-04-18T10:27:57.448Z,13.46
2023-04-18T10:31:04.148Z,13.61
2023-04-18T10:34:07.299Z,13.72
2023-04-18T10:37:09.596Z,13.99
2023-04-18T10:40:11.967Z,14.26
2023-04-18T10:43:13.974Z,14.33
2023-04-18T10:46:30.387Z,14.61
2023-04-18T10:49:38.833Z,14.55
2023-04-18T10:52:41.748Z,14.32
2023-04-18T10:55:55.026Z,14.08
2023-04-18T10:59:01.941Z,13.99
2023-04-18T11:02:34.919Z,14.06
2023-04-18T11:05:36.947Z,14.14
2023-04-18T11:08:39.265Z,14.19
2023-04-18T11:11:44.289Z,14.28
2023-04-18T11:14:50.155Z,14.53
2023-04-18T11:18:03.332Z,14.77
2023-04-18T11:21:05.779Z,15.06
2023-04-18T11:24:07.560Z,15.11
2023-04-18T11:27:11.239Z,15.13
2023-04-18T11:30:14.778Z,14.95
2023-04-18T11:33:16.814Z,14.79
2023-04-18T11:36:19.531Z,14.63
2023-04-18T11:39:22.248Z,14.54
2023-04-18T11:42:28.857Z,14.41
2023-04-18T11:45:31.318Z,14.43
2023-04-18T11:48:41.251Z,14.49
2023-04-18T11:51:46.480Z,14.59
2023-04-18T11:54:48.665Z,14.66
2023-04-18T11:58:03.359Z,14.67
2023-04-18T12:01:23.078Z,14.76
2023-04-18T12:04:25.361Z,14.88
2023-04-18T12:07:34.431Z,14.92
2023-04-18T12:10:36.401Z,15.07
2023-04-18T12:13:38.271Z,15.32
2023-04-18T12:16:41.679Z,15.58
2023-04-18T12:19:50.496Z,15.53
2023-04-18T12:22:54.337Z,15.29
2023-04-18T12:26:01.242Z,15.21
2023-04-18T12:29:03.100Z,15.19
2023-04-18T12:32:05.080Z,15.39
2023-04-18T12:35:07.762Z,15.82
2023-04-18T12:38:09.820Z,15.87
2023-04-18T12:41:11.673Z,15.51
2023-04-18T12:44:14.017Z,15.16
2023-04-18T12:47:16.516Z,14.97
2023-04-18T12:50:20.906Z,14.50
2023-04-18T12:53:22.800Z,14.21
2023-04-18T12:56:24.635Z,14.46
2023-04-18T12:59:26.549Z,15.00
2023-04-18T13:02:29.604Z,15.67
2023-04-18T13:05:34.021Z,16.30
2023-04-18T13:08:37.539Z,16.60
2023-04-18T13:11:39.369Z,16.74
2023-04-18T13:14:43.018Z,16.48
2023-04-18T13:17:45.448Z,16.25
2023-04-18T13:20:47.752Z,16.30
2023-04-18T13:23:49.797Z,16.43
2023-04-18T13:26:52.055Z,16.63
2023-04-18T13:29:55.246Z,16.58
2023-04-18T13:32:57.769Z,16.35
2023-04-18T13:35:59.618Z,16.31
2023-04-18T13:39:02.060Z,16.20
2023-04-18T13:42:04.671Z,16.14
2023-04-18T13:45:07.857Z,15.69
2023-04-18T13:48:10.069Z,15.49
2023-04-18T13:51:12.158Z,15.54
2023-04-18T13:54:16.558Z,15.49
2023-04-18T13:57:18.531Z,15.37
2023-04-18T14:00:20.875Z,15.54
2023-04-18T14:03:22.966Z,15.71
2023-04-18T14:06:27.745Z,15.70
2023-04-18T14:09:29.922Z,15.91
2023-04-18T14:12:32.001Z,16.18
2023-04-18T14:15:33.938Z,16.40
2023-04-18T14:18:35.889Z,16.66
2023-04-18T14:21:37.914Z,16.91
2023-04-18T14:24:40.083Z,17.28
2023-04-18T14:27:41.872Z,17.37
2023-04-18T14:30:44.843Z,17.35
2023-04-18T14:33:46.822Z,17.38
2023-04-18T14:36:48.880Z,17.74
2023-04-18T14:39:51.649Z,18.02
2023-04-18T14:42:53.864Z,17.91
2023-04-18T14:45:57.893Z,17.82
2023-04-18T14:49:01.354Z,18.00
2023-04-18T14:52:03.340Z,18.08
2023-04-18T14:55:06.953Z,17.72
2023-04-18T14:58:08.789Z,17.58
2023-04-18T15:01:10.750Z,17.75
2023-04-18T15:04:12.852Z,17.95
2023-04-18T15:07:18.447Z,18.01
2023-04-18T15:10:22.483Z,17.79
2023-04-18T15:13:27.724Z,17.93
2023-04-18T15:16:32.290Z,17.97
2023-04-18T15:19:35.682Z,17.87
2023-04-18T15:22:38.799Z,17.61
2023-04-18T15:25:41.422Z,17.65
2023-04-18T15:28:43.462Z,17.72
2023-04-18T15:31:45.630Z,17.89
2023-04-18T15:34:47.975Z,17.81
2023-04-18T15:37:51.437Z,17.67
2023-04-18T15:40:53.356Z,17.71
2023-04-18T15:43:55.489Z,17.58
2023-04-18T15:46:58.193Z,17.36
2023-04-18T15:50:00.786Z,17.09
2023-04-18T15:53:03.068Z,16.86
2023-04-18T15:56:06.371Z,16.61
2023-04-18T15:59:10.912Z,16.24
2023-04-18T16:02:12.627Z,15.90
2023-04-18T16:05:16.235Z,15.67
2023-04-18T16:08:18.424Z,15.46
2023-04-18T16:11:21.914Z,15.26
2023-04-18T16:14:23.558Z,15.10
2023-04-18T16:17:25.629Z,15.00
2023-04-18T16:20:27.866Z,14.80
2023-04-18T16:23:31.887Z,14.64
2023-04-18T16:26:33.793Z,14.46
2023-04-18T16:29:36.006Z,14.39
2023-04-18T16:32:38.980Z,14.39
2023-04-18T16:35:40.844Z,14.62
2023-04-18T16:38:42.775Z,14.84
2023-04-18T16:41:44.627Z,14.83
2023-04-18T16:44:47.459Z,14.74
2023-04-18T16:47:49.311Z,14.52
2023-04-18T16:50:51.207Z,14.36
2023-04-18T16:53:53.206Z,14.18
2023-04-18T16:56:55.080Z,14.02
2023-04-18T16:59:58.533Z,13.74
2023-04-18T17:03:00.597Z,13.63
2023-04-18T17:06:02.687Z,13.53
2023-04-18T17:09:06.548Z,13.44
2023-04-18T17:12:08.582Z,13.34
2023-04-18T17:15:11.390Z,13.21
2023-04-18T17:18:13.491Z,13.12
2023-04-18T17:21:15.763Z,13.06
2023-04-18T17:24:19.995Z,12.96
2023-04-18T17:27:22.028Z,12.89
2023-04-18T17:30:24.062Z,12.77
2023-04-18T17:33:25.904Z,12.68
2023-04-18T17:36:27.786Z,12.71
2023-04-18T17:39:31.441Z,12.68
2023-04-18T17:42:33.523Z,12.69
2023-04-18T17:45:35.549Z,12.58
2023-04-18T17:48:37.896Z,12.50
2023-04-18T17:51:39.935Z,12.46
2023-04-18T17:54:41.819Z,12.47
2023-04-18T17:57:43.640Z,12.28
2023-04-18T18:00:45.817Z,12.19
2023-04-18T18:03:48.244Z,12.22
2023-04-18T18:06:54.646Z,12.18
2023-04-18T18:09:56.472Z,12.11
2023-04-18T18:12:58.767Z,12.06
2023-04-18T18:16:02.659Z,11.99
2023-04-18T18:19:07.391Z,11.97
2023-04-18T18:22:09.554Z,11.98
2023-04-18T18:25:11.350Z,11.88
2023-04-18T18:28:13.104Z,11.86
2023-04-18T18:31:15.057Z,11.84
2023-04-18T18:34:17.221Z,11.76
2023-04-18T18:37:18.972Z,11.71
2023-04-18T18:40:20.882Z,11.77
2023-04-18T18:43:26.292Z,11.71
2023-04-18T18:46:28.232Z,11.73
2023-04-18T18:49:30.226Z,11.68
2023-04-18T18:52:32.715Z,11.73
2023-04-18T18:55:34.307Z,11.68
2023-04-18T18:58:35.990Z,11.77
2023-04-18T19:01:37.859Z,11.67
2023-04-18T19:04:39.732Z,11.63
2023-04-18T19:07:47.546Z,11.61
2023-04-18T19:10:49.443Z,11.53
2023-04-18T19:13:52.018Z,11.45
2023-04-18T19:16:55.887Z,11.33
2023-04-18T19:20:01.710Z,11.22
2023-04-18T19:23:03.807Z,11.12
2023-04-18T19:26:05.615Z,10.96
2023-04-18T19:29:07.949Z,11.13
2023-04-18T19:32:09.962Z,11.19
2023-04-18T19:35:13.279Z,11.41
2023-04-18T19:38:15.620Z,11.29
2023-04-18T19:41:17.595Z,11.24
2023-04-18T19:44:22.595Z,11.22
2023-04-18T19:47:24.605Z,11.10
2023-04-18T19:50:26.275Z,11.09
2023-04-18T19:53:28.640Z,11.25
2023-04-18T19:56:30.502Z,11.36
2023-04-18T19:59:32.365Z,11.21
2023-04-18T20:02:34.419Z,11.17
2023-04-18T20:05:36.659Z,11.20
2023-04-18T20:08:46.663Z,11.29
2023-04-18T20:11:48.988Z,11.31
2023-04-18T20:14:51.281Z,11.36
2023-04-18T20:17:53.224Z,11.34
2023-04-18T20:20:55.190Z,11.25
2023-04-18T20:23:58.549Z,11.28
2023-04-18T20:27:01.784Z,11.30
2023-04-18T20:30:04.656Z,11.22
2023-04-18T20:33:06.465Z,11.23
2023-04-18T20:36:08.471Z,11.26
2023-04-18T20:39:10.371Z,11.12
2023-04-18T20:42:14.782Z,11.11
2023-04-18T20:45:16.557Z,11.10
2023-04-18T20:48:18.788Z,11.03
2023-04-18T20:51:23.078Z,11.08
2023-04-18T20:54:24.735Z,11.03
2023-04-18T20:57:26.929Z,11.13
2023-04-18T21:00:28.727Z,10.97
2023-04-18T21:03:31.110Z,10.98
2023-04-18T21:06:32.982Z,10.93
2023-04-18T21:09:36.893Z,10.98
2023-04-18T21:12:39.969Z,10.89
2023-04-18T21:15:43.239Z,10.87
2023-04-18T21:18:45.136Z,10.90
2023-04-18T21:21:46.879Z,10.87
2023-04-18T21:24:48.930Z,10.78
2023-04-18T21:27:50.972Z,10.82
2023-04-18T21:30:52.629Z,10.78
2023-04-18T21:33:56.120Z,10.63
2023-04-18T21:36:57.990Z,10.68
2023-04-18T21:40:00.785Z,10.76
2023-04-18T21:43:02.511Z,10.65
2023-04-18T21:46:04.274Z,10.62
2023-04-18T21:49:07.158Z,10.62
2023-04-18T21:52:09.207Z,10.68
2023-04-18T21:55:10.854Z,10.60
2023-04-18T21:58:13.353Z,10.57
2023-04-18T22:01:15.179Z,10.61
2023-04-18T22:04:21.124Z,10.59
2023-04-18T22:07:24.681Z,10.58
2023-04-18T22:10:26.350Z,10.48
2023-04-18T22:13:37.789Z,10.49
2023-04-18T22:16:40.022Z,10.44
2023-04-18T22:19:44.517Z,10.41
2023-04-18T22:22:46.406Z,10.49
2023-04-18T22:25:48.685Z,10.46
2023-04-18T22:28:50.420Z,10.35
2023-04-18T22:31:52.274Z,10.30
2023-04-18T22:34:53.995Z,10.28
2023-04-18T22:37:57.097Z,10.22
2023-04-18T22:41:02.137Z,10.14
2023-04-18T22:44:04.639Z,10.18
2023-04-18T22:47:08.065Z,10.07
2023-04-18T22:50:10.151Z,10.21
2023-04-18T22:53:12.319Z,10.24
2023-04-18T22:56:14.028Z,10.21
2023-04-18T22:59:15.924Z,10.15
2023-04-18T23:02:17.750Z,10.05
2023-04-18T23:05:19.729Z,9.96
2023-04-18T23:08:22.828Z,9.76
2023-04-18T23:11:25.530Z,9.56
2023-04-18T23:14:27.670Z,9.43
2023-04-18T23:17:29.578Z,9.32
2023-04-18T23:20:31.434Z,9.33
2023-04-18T23:23:33.269Z,9.48
2023-04-18T23:26:35.040Z,9.41
2023-04-18T23:29:40.306Z,9.34
2023-04-18T23:32:42.316Z,9.31
2023-04-18T23:35:44.427Z,9.24
2023-04-18T23:38:46.663Z,9.21
2023-04-18T23:41:48.500Z,9.22
2023-04-18T23:44:50.224Z,9.14
2023-04-18T23:47:52.150Z,9.15
2023-04-18T23:50:54.126Z,9.16
2023-04-18T23:53:56.202Z,9.26
2023-04-18T23:56:58.479Z,9.25
